createdAt,value
2022-12-04T00:01:21.428Z,9.33
2022-12-04T00:03:49.508Z,9.00
2022-12-04T00:06:19.268Z,8.30
2022-12-04T00:08:48.164Z,8.70
2022-12-04T00:11:19.479Z,8.57
2022-12-04T00:13:47.520Z,8.40
2022-12-04T00:16:17.153Z,9.60
2022-12-04T00:18:45.445Z,10.93
2022-12-04T00:21:15.022Z,9.20
2022-12-04T00:23:43.337Z,8.40
2022-12-04T00:26:18.221Z,9.67
2022-12-04T00:28:46.416Z,8.80
2022-12-04T00:31:16.175Z,8.43
2022-12-04T00:33:44.356Z,7.73
2022-12-04T00:36:14.556Z,7.67
2022-12-04T00:38:44.060Z,7.80
2022-12-04T00:41:12.470Z,7.30
2022-12-04T00:43:41.773Z,8.33
2022-12-04T00:46:10.275Z,8.90
2022-12-04T00:48:38.235Z,9.27
2022-12-04T00:51:07.231Z,11.17
2022-12-04T00:53:35.043Z,9.73
2022-12-04T00:56:05.701Z,10.07
2022-12-04T00:58:33.728Z,8.60
2022-12-04T01:01:08.399Z,9.17
2022-12-04T01:03:36.576Z,8.60
2022-12-04T01:06:05.084Z,8.90
2022-12-04T01:08:33.581Z,8.97
2022-12-04T01:11:01.356Z,9.60
2022-12-04T01:13:29.169Z,8.90
2022-12-04T01:15:57.015Z,9.20
2022-12-04T01:18:26.244Z,9.13
2022-12-04T01:20:54.449Z,7.97
2022-12-04T01:23:22.481Z,7.87
2022-12-04T01:25:54.351Z,7.50
2022-12-04T01:28:22.766Z,8.10
2022-12-04T01:31:02.383Z,7.67
2022-12-04T01:33:32.636Z,9.40
2022-12-04T01:36:01.963Z,7.37
2022-12-04T01:38:30.181Z,8.00
2022-12-04T01:40:58.537Z,7.73
2022-12-04T01:43:27.446Z,7.00
2022-12-04T01:45:57.725Z,6.93
2022-12-04T01:48:30.719Z,9.40
2022-12-04T01:51:05.784Z,7.93
2022-12-04T01:53:35.306Z,8.73
2022-12-04T01:56:04.099Z,8.00
2022-12-04T01:58:35.962Z,7.67
2022-12-04T02:01:09.195Z,6.53
2022-12-04T02:03:37.639Z,6.10
2022-12-04T02:06:07.633Z,7.17
2022-12-04T02:08:37.214Z,8.00
2022-12-04T02:11:14.681Z,8.77
2022-12-04T02:13:50.300Z,8.60
2022-12-04T02:16:24.678Z,7.70
2022-12-04T02:19:05.197Z,8.00
2022-12-04T02:21:38.508Z,7.93
2022-12-04T02:24:48.289Z,8.40
2022-12-04T02:27:32.076Z,7.87
2022-12-04T02:30:04.709Z,7.10
2022-12-04T02:32:40.455Z,8.03
2022-12-04T02:35:12.525Z,7.77
2022-12-04T02:37:45.998Z,9.10
2022-12-04T02:40:20.394Z,8.30
2022-12-04T02:42:54.540Z,7.80
2022-12-04T02:45:28.824Z,8.63
2022-12-04T02:47:57.650Z,7.63
2022-12-04T02:50:26.891Z,9.43
2022-12-04T02:52:58.312Z,9.20
2022-12-04T02:55:32.361Z,9.53
2022-12-04T02:58:05.333Z,9.20
2022-12-04T03:00:36.568Z,8.93
2022-12-04T03:03:09.618Z,9.47
2022-12-04T03:05:42.470Z,8.90
2022-12-04T03:08:16.581Z,9.33
2022-12-04T03:10:49.794Z,7.30
2022-12-04T03:13:21.408Z,8.97
2022-12-04T03:15:55.202Z,8.10
2022-12-04T03:18:27.322Z,8.83
2022-12-04T03:21:02.632Z,8.60
2022-12-04T03:23:35.181Z,8.87
2022-12-04T03:26:08.138Z,7.77
2022-12-04T03:28:47.615Z,8.83
2022-12-04T03:31:22.925Z,8.50
2022-12-04T03:33:52.924Z,7.50
2022-12-04T03:36:25.914Z,8.13
2022-12-04T03:38:58.347Z,7.10
2022-12-04T03:41:31.090Z,7.30
2022-12-04T03:44:05.687Z,7.80
2022-12-04T03:46:39.572Z,7.97
2022-12-04T03:49:13.706Z,7.93
2022-12-04T03:51:48.899Z,6.40
2022-12-04T03:54:20.809Z,7.90
2022-12-04T03:56:53.849Z,7.63
2022-12-04T03:59:25.735Z,7.67
2022-12-04T04:01:57.188Z,7.73
2022-12-04T04:04:29.320Z,8.30
2022-12-04T04:07:03.900Z,7.63
2022-12-04T04:09:38.085Z,7.80
2022-12-04T04:12:09.624Z,7.70
2022-12-04T04:14:59.548Z,8.00
2022-12-04T04:17:49.698Z,6.47
2022-12-04T04:20:39.562Z,7.03
2022-12-04T04:23:29.580Z,9.90
2022-12-04T04:25:59.054Z,7.03
2022-12-04T04:28:32.971Z,7.70
2022-12-04T04:31:09.215Z,8.10
2022-12-04T04:33:47.025Z,8.10
2022-12-04T04:36:24.617Z,7.50
2022-12-04T04:39:02.204Z,9.90
2022-12-04T04:41:37.620Z,7.93
2022-12-04T04:44:16.113Z,8.83
2022-12-04T04:46:49.236Z,7.27
2022-12-04T04:49:20.086Z,8.00
2022-12-04T04:51:49.176Z,7.00
2022-12-04T04:54:18.778Z,8.97
2022-12-04T04:56:48.303Z,7.30
2022-12-04T04:59:17.019Z,6.87
2022-12-04T05:01:47.211Z,8.00
2022-12-04T05:04:15.434Z,7.67
2022-12-04T05:06:44.602Z,6.10
2022-12-04T05:09:12.469Z,8.00
2022-12-04T05:11:40.351Z,6.40
2022-12-04T05:14:09.407Z,7.00
2022-12-04T05:16:41.639Z,8.10
2022-12-04T05:19:27.073Z,7.40
2022-12-04T05:21:57.032Z,6.97
2022-12-04T05:24:24.903Z,6.90
2022-12-04T05:26:52.655Z,6.07
2022-12-04T05:29:20.525Z,7.03
2022-12-04T05:31:48.505Z,6.77
2022-12-04T05:34:16.316Z,6.70
2022-12-04T05:36:44.059Z,6.67
2022-12-04T05:39:13.238Z,6.33
2022-12-04T05:41:41.077Z,6.33
2022-12-04T05:44:08.865Z,7.20
2022-12-04T05:46:36.854Z,7.00
2022-12-04T05:49:04.651Z,5.90
2022-12-04T05:51:32.487Z,7.63
2022-12-04T05:54:00.239Z,7.33
2022-12-04T05:56:29.410Z,7.17
2022-12-04T05:58:57.186Z,7.33
2022-12-04T06:01:25.922Z,7.33
2022-12-04T06:03:53.742Z,8.03
2022-12-04T06:06:23.947Z,7.83
2022-12-04T06:08:52.599Z,7.80
2022-12-04T06:11:23.263Z,7.67
2022-12-04T06:13:52.925Z,7.37
2022-12-04T06:16:23.543Z,6.97
2022-12-04T06:18:52.440Z,7.77
2022-12-04T06:21:20.894Z,7.97
2022-12-04T06:23:49.074Z,7.90
2022-12-04T06:26:16.961Z,6.90
2022-12-04T06:28:44.887Z,9.33
2022-12-04T06:31:16.348Z,7.73
2022-12-04T06:33:44.498Z,8.40
2022-12-04T06:36:14.216Z,9.00
2022-12-04T06:38:42.726Z,7.57
2022-12-04T06:41:12.546Z,9.03
2022-12-04T06:43:40.778Z,9.10
2022-12-04T06:46:11.321Z,8.90
2022-12-04T06:48:40.992Z,7.73
2022-12-04T06:51:11.008Z,7.47
2022-12-04T06:53:39.478Z,7.87
2022-12-04T06:56:10.106Z,7.67
2022-12-04T06:58:38.178Z,7.53
2022-12-04T07:01:09.121Z,7.57
2022-12-04T07:03:37.391Z,6.43
2022-12-04T07:06:14.353Z,7.70
2022-12-04T07:08:42.516Z,7.40
2022-12-04T07:11:10.467Z,7.33
2022-12-04T07:13:38.745Z,8.10
2022-12-04T07:16:09.463Z,7.30
2022-12-04T07:18:38.017Z,8.17
2022-12-04T07:21:07.229Z,7.63
2022-12-04T07:23:36.629Z,7.57
2022-12-04T07:26:08.062Z,8.23
2022-12-04T07:28:37.154Z,7.40
2022-12-04T07:31:06.284Z,8.43
2022-12-04T07:33:34.222Z,8.13
2022-12-04T07:36:04.234Z,8.00
2022-12-04T07:38:33.073Z,7.80
2022-12-04T07:41:03.030Z,9.30
2022-12-04T07:43:31.695Z,7.77
2022-12-04T07:46:00.333Z,7.40
2022-12-04T07:48:33.146Z,8.03
2022-12-04T07:51:06.901Z,7.10
2022-12-04T07:53:35.745Z,7.90
2022-12-04T07:56:06.546Z,8.37
2022-12-04T07:58:35.085Z,7.67
2022-12-04T08:01:07.674Z,8.30
2022-12-04T08:03:42.117Z,8.37
2022-12-04T08:06:13.756Z,9.47
2022-12-04T08:08:41.560Z,7.50
2022-12-04T08:11:12.754Z,9.73
2022-12-04T08:13:40.664Z,8.10
2022-12-04T08:16:10.458Z,8.57
2022-12-04T08:18:38.695Z,8.33
2022-12-04T08:21:07.770Z,8.00
2022-12-04T08:23:36.356Z,8.50
2022-12-04T08:26:05.115Z,7.90
2022-12-04T08:28:34.552Z,8.40
2022-12-04T08:31:04.682Z,8.80
2022-12-04T08:33:32.991Z,8.20
2022-12-04T08:36:01.413Z,7.80
2022-12-04T08:38:29.176Z,6.67
2022-12-04T08:41:01.024Z,7.63
2022-12-04T08:43:28.813Z,9.20
2022-12-04T08:45:59.637Z,8.43
2022-12-04T08:48:28.423Z,8.70
2022-12-04T08:50:56.563Z,8.60
2022-12-04T08:53:24.733Z,7.53
2022-12-04T08:55:53.160Z,7.80
2022-12-04T08:58:21.113Z,8.70
2022-12-04T09:00:49.027Z,9.13
2022-12-04T09:03:19.895Z,7.10
2022-12-04T09:05:48.528Z,8.13
2022-12-04T09:08:17.703Z,9.57
2022-12-04T09:10:45.818Z,8.83
2022-12-04T09:13:13.592Z,7.60
2022-12-04T09:15:41.824Z,9.10
2022-12-04T09:18:10.969Z,9.17
2022-12-04T09:20:40.052Z,8.87
2022-12-04T09:23:07.827Z,10.90
2022-12-04T09:25:36.875Z,8.23
2022-12-04T09:28:05.456Z,9.50
2022-12-04T09:30:33.261Z,10.60
2022-12-04T09:33:01.001Z,9.40
2022-12-04T09:35:29.726Z,7.90
2022-12-04T09:37:59.194Z,10.63
2022-12-04T09:40:35.213Z,9.47
2022-12-04T09:43:13.854Z,10.13
2022-12-04T09:45:46.927Z,9.20
2022-12-04T09:48:17.336Z,9.53
2022-12-04T09:50:47.968Z,8.47
2022-12-04T09:53:21.021Z,9.40
2022-12-04T09:55:55.988Z,8.90
2022-12-04T09:58:26.784Z,9.80
2022-12-04T10:00:56.315Z,13.60
2022-12-04T10:03:28.790Z,10.17
2022-12-04T10:06:06.383Z,8.40
2022-12-04T10:08:39.398Z,9.53
2022-12-04T10:11:15.661Z,9.27
2022-12-04T10:14:06.811Z,10.70
2022-12-04T10:16:46.819Z,8.93
2022-12-04T10:19:23.643Z,8.63
2022-12-04T10:22:04.707Z,8.77
2022-12-04T10:24:43.023Z,8.77
2022-12-04T10:27:16.050Z,8.90
2022-12-04T10:29:48.317Z,10.60
2022-12-04T10:32:21.232Z,9.93
2022-12-04T10:34:53.366Z,9.00
2022-12-04T10:37:22.275Z,10.10
2022-12-04T10:39:56.707Z,10.50
2022-12-04T10:42:32.270Z,11.45
2022-12-04T10:45:00.119Z,10.40
2022-12-04T10:47:28.945Z,12.32
2022-12-04T10:50:01.457Z,10.70
2022-12-04T10:52:29.376Z,8.57
2022-12-04T10:55:00.529Z,9.50
2022-12-04T10:57:39.447Z,9.17
2022-12-04T11:00:27.708Z,9.33
2022-12-04T11:02:58.197Z,10.10
2022-12-04T11:05:30.152Z,8.47
2022-12-04T11:07:59.533Z,8.93
2022-12-04T11:10:34.218Z,9.10
2022-12-04T11:13:03.984Z,11.43
2022-12-04T11:15:32.138Z,8.47
2022-12-04T11:18:09.483Z,8.43
2022-12-04T11:20:37.414Z,10.03
2022-12-04T11:23:06.465Z,9.53
2022-12-04T11:25:45.879Z,9.63
2022-12-04T11:28:33.809Z,10.10
2022-12-04T11:31:07.401Z,8.40
2022-12-04T11:33:39.648Z,8.10
2022-12-04T11:36:19.647Z,9.93
2022-12-04T11:38:47.798Z,7.63
2022-12-04T11:41:27.363Z,9.73
2022-12-04T11:44:00.041Z,9.50
2022-12-04T11:46:31.177Z,10.30
2022-12-04T11:48:59.412Z,8.97
2022-12-04T11:51:35.380Z,9.87
2022-12-04T11:54:14.909Z,9.47
2022-12-04T11:56:49.448Z,9.77
2022-12-04T11:59:55.337Z,9.10
2022-12-04T12:02:37.024Z,9.97
2022-12-04T12:05:17.946Z,10.77
2022-12-04T12:08:00.582Z,9.33
2022-12-04T12:10:41.527Z,10.77
2022-12-04T12:13:21.646Z,9.80
2022-12-04T12:15:59.690Z,9.43
2022-12-04T12:18:44.760Z,9.60
2022-12-04T12:21:17.310Z,11.00
2022-12-04T12:23:58.079Z,10.30
2022-12-04T12:26:33.134Z,12.45
2022-12-04T12:29:17.637Z,9.23
2022-12-04T12:32:05.165Z,9.20
2022-12-04T12:34:38.410Z,9.43
2022-12-04T12:37:15.004Z,7.87
2022-12-04T12:39:49.042Z,7.27
2022-12-04T12:42:22.237Z,9.63
2022-12-04T12:44:56.860Z,7.87
2022-12-04T12:47:29.011Z,7.07
2022-12-04T12:50:00.825Z,7.60
2022-12-04T12:52:35.554Z,8.60
2022-12-04T12:55:06.549Z,8.23
2022-12-04T12:57:37.738Z,7.23
2022-12-04T13:00:15.392Z,8.60
2022-12-04T13:02:48.101Z,7.87
2022-12-04T13:05:21.375Z,9.70
2022-12-04T13:07:55.099Z,8.23
2022-12-04T13:10:26.799Z,8.70
2022-12-04T13:12:58.800Z,8.57
2022-12-04T13:15:37.099Z,8.50
2022-12-04T13:18:07.740Z,9.10
2022-12-04T13:20:44.589Z,8.13
2022-12-04T13:23:22.714Z,8.90
2022-12-04T13:25:59.609Z,8.50
2022-12-04T13:28:45.168Z,9.77
2022-12-04T13:31:25.433Z,10.67
2022-12-04T13:34:11.905Z,11.53
2022-12-04T13:37:04.656Z,10.00
2022-12-04T13:39:57.279Z,10.60
2022-12-04T13:42:28.267Z,10.03
2022-12-04T13:44:59.033Z,10.17
2022-12-04T13:47:31.639Z,11.37
2022-12-04T13:50:22.413Z,9.50
2022-12-04T13:52:53.417Z,10.33
2022-12-04T13:55:32.489Z,9.10
2022-12-04T13:58:02.974Z,10.20
2022-12-04T14:00:33.486Z,10.17
2022-12-04T14:03:05.837Z,12.07
2022-12-04T14:05:41.859Z,9.83
2022-12-04T14:08:24.720Z,9.90
2022-12-04T14:11:01.854Z,11.00
2022-12-04T14:13:43.300Z,9.90
2022-12-04T14:16:20.900Z,10.50
2022-12-04T14:18:53.587Z,9.70
2022-12-04T14:21:21.871Z,10.73
2022-12-04T14:23:51.197Z,9.37
2022-12-04T14:27:10.158Z,10.50
2022-12-04T14:29:35.990Z,8.60
2022-12-04T14:32:10.384Z,10.70
2022-12-04T14:34:40.321Z,11.00
2022-12-04T14:37:12.296Z,10.30
2022-12-04T14:39:44.057Z,10.70
2022-12-04T14:42:15.402Z,13.03
2022-12-04T14:44:55.199Z,11.70
2022-12-04T14:47:36.412Z,11.00
2022-12-04T14:50:20.553Z,12.60
2022-12-04T14:52:53.985Z,11.10
2022-12-04T14:55:31.788Z,11.80
2022-12-04T14:58:21.459Z,11.40
2022-12-04T15:00:53.396Z,13.60
2022-12-04T15:03:22.057Z,13.43
2022-12-04T15:05:52.933Z,15.00
2022-12-04T15:08:21.098Z,12.30
2022-12-04T15:11:08.973Z,10.77
2022-12-04T15:13:38.540Z,9.53
2022-12-04T15:16:11.335Z,9.80
2022-12-04T15:18:39.756Z,11.30
2022-12-04T15:21:12.079Z,11.23
2022-12-04T15:23:42.303Z,9.67
2022-12-04T15:26:13.407Z,10.77
2022-12-04T15:28:45.672Z,12.20
2022-12-04T15:31:16.950Z,11.27
2022-12-04T15:33:47.235Z,11.00
2022-12-04T15:36:20.799Z,11.33
2022-12-04T15:38:50.393Z,12.00
2022-12-04T15:41:32.109Z,10.40
2022-12-04T15:44:00.616Z,9.57
2022-12-04T15:46:33.500Z,7.60
2022-12-04T15:49:16.203Z,10.17
2022-12-04T15:51:45.768Z,9.30
2022-12-04T15:54:21.787Z,11.27
2022-12-04T15:57:00.147Z,10.53
2022-12-04T15:59:29.440Z,11.17
2022-12-04T16:01:59.702Z,10.33
2022-12-04T16:04:35.320Z,9.83
2022-12-04T16:07:04.575Z,9.50
2022-12-04T16:09:32.408Z,12.40
2022-12-04T16:12:02.145Z,11.00
2022-12-04T16:14:30.304Z,10.47
2022-12-04T16:17:05.913Z,9.50
2022-12-04T16:19:36.443Z,11.73
2022-12-04T16:22:12.775Z,9.90
2022-12-04T16:24:40.607Z,11.73
2022-12-04T16:27:12.483Z,9.20
2022-12-04T16:29:40.272Z,7.27
2022-12-04T16:32:10.054Z,6.87
2022-12-04T16:34:37.904Z,9.43
2022-12-04T16:37:13.111Z,9.07
2022-12-04T16:39:41.550Z,8.93
2022-12-04T16:42:17.642Z,8.30
2022-12-04T16:44:45.879Z,8.20
2022-12-04T16:47:14.681Z,7.63
2022-12-04T16:49:43.009Z,9.10
2022-12-04T16:52:13.002Z,8.53
2022-12-04T16:54:41.468Z,7.57
2022-12-04T16:57:09.928Z,10.03
2022-12-04T16:59:37.764Z,9.17
2022-12-04T17:02:14.723Z,8.83
2022-12-04T17:04:42.526Z,9.10
2022-12-04T17:07:11.863Z,8.60
2022-12-04T17:09:39.607Z,9.30
2022-12-04T17:12:07.558Z,9.40
2022-12-04T17:14:35.578Z,10.20
2022-12-04T17:17:03.384Z,9.07
2022-12-04T17:19:31.136Z,8.63
2022-12-04T17:22:01.105Z,9.30
2022-12-04T17:24:30.331Z,8.63
2022-12-04T17:26:58.556Z,8.80
2022-12-04T17:29:26.362Z,8.70
2022-12-04T17:31:54.192Z,8.73
2022-12-04T17:34:22.072Z,8.00
2022-12-04T17:36:49.863Z,8.57
2022-12-04T17:39:17.712Z,7.70
2022-12-04T17:41:46.816Z,8.87
2022-12-04T17:44:14.603Z,9.03
2022-12-04T17:46:42.475Z,7.63
2022-12-04T17:49:10.294Z,7.73
2022-12-04T17:51:38.304Z,8.20
2022-12-04T17:54:06.892Z,7.60
2022-12-04T17:56:34.697Z,8.47
2022-12-04T17:59:04.552Z,9.17
2022-12-04T18:01:32.471Z,8.40
2022-12-04T18:04:03.098Z,8.33
2022-12-04T18:06:32.612Z,8.97
2022-12-04T18:09:00.552Z,8.27
2022-12-04T18:11:30.937Z,8.20
2022-12-04T18:14:01.136Z,7.50
2022-12-04T18:16:32.268Z,8.90
2022-12-04T18:19:01.762Z,8.07
2022-12-04T18:21:30.274Z,9.00
2022-12-04T18:24:02.698Z,7.77
2022-12-04T18:26:34.671Z,9.27
2022-12-04T18:29:03.047Z,7.33
2022-12-04T18:31:32.810Z,7.93
2022-12-04T18:34:00.937Z,8.63
2022-12-04T18:36:30.481Z,9.93
2022-12-04T18:39:00.212Z,8.33
2022-12-04T18:41:28.798Z,8.80
2022-12-04T18:43:56.969Z,9.20
2022-12-04T18:46:25.532Z,8.97
2022-12-04T18:48:56.074Z,8.77
2022-12-04T18:51:26.714Z,8.37
2022-12-04T18:53:57.152Z,8.97
2022-12-04T18:56:25.165Z,9.53
2022-12-04T18:58:58.195Z,8.50
2022-12-04T19:01:26.303Z,7.90
2022-12-04T19:03:58.857Z,9.53
2022-12-04T19:06:31.090Z,8.50
2022-12-04T19:09:00.596Z,9.20
2022-12-04T19:11:28.798Z,8.20
2022-12-04T19:13:56.941Z,9.73
2022-12-04T19:16:24.767Z,7.60
2022-12-04T19:18:53.011Z,8.57
2022-12-04T19:21:22.268Z,8.07
2022-12-04T19:23:53.086Z,6.37
2022-12-04T19:26:20.876Z,7.60
2022-12-04T19:28:48.731Z,7.37
2022-12-04T19:31:18.331Z,8.00
2022-12-04T19:33:47.520Z,7.50
2022-12-04T19:36:16.251Z,6.90
2022-12-04T19:38:45.635Z,7.10
2022-12-04T19:41:15.295Z,8.17
2022-12-04T19:43:44.591Z,7.87
2022-12-04T19:46:14.236Z,6.47
2022-12-04T19:48:42.480Z,7.63
2022-12-04T19:51:12.961Z,6.50
2022-12-04T19:53:41.429Z,6.93
2022-12-04T19:56:13.644Z,7.17
2022-12-04T19:58:42.077Z,6.93
2022-12-04T20:01:12.828Z,7.17
2022-12-04T20:03:40.911Z,6.17
2022-12-04T20:06:11.785Z,6.77
2022-12-04T20:08:40.149Z,5.27
2022-12-04T20:11:11.754Z,6.40
2022-12-04T20:13:39.869Z,5.93
2022-12-04T20:16:10.118Z,6.60
2022-12-04T20:18:38.769Z,6.90
2022-12-04T20:21:10.910Z,7.30
2022-12-04T20:23:39.093Z,6.43
2022-12-04T20:26:08.551Z,5.77
2022-12-04T20:28:38.233Z,5.97
2022-12-04T20:31:13.328Z,7.90
2022-12-04T20:33:41.507Z,5.50
2022-12-04T20:36:10.442Z,7.10
2022-12-04T20:38:39.016Z,8.87
2022-12-04T20:41:07.796Z,7.30
2022-12-04T20:43:37.322Z,6.70
2022-12-04T20:46:15.020Z,6.13
2022-12-04T20:48:47.875Z,6.87
2022-12-04T20:51:16.711Z,6.27
2022-12-04T20:53:44.885Z,7.73
2022-12-04T20:56:13.404Z,8.00
2022-12-04T20:58:42.658Z,6.30
2022-12-04T21:01:14.153Z,7.10
2022-12-04T21:03:42.680Z,6.43
2022-12-04T21:06:14.502Z,6.30
2022-12-04T21:08:54.569Z,6.23
2022-12-04T21:11:23.471Z,5.50
2022-12-04T21:14:10.682Z,6.00
2022-12-04T21:16:38.868Z,6.27
2022-12-04T21:19:08.036Z,6.53
2022-12-04T21:21:36.589Z,5.63
2022-12-04T21:24:04.951Z,6.30
2022-12-04T21:26:33.863Z,7.07
2022-12-04T21:29:04.680Z,7.30
2022-12-04T21:31:32.904Z,6.70
2022-12-04T21:34:02.344Z,6.90
2022-12-04T21:36:30.910Z,6.97
2022-12-04T21:38:58.790Z,7.07
2022-12-04T21:41:44.250Z,6.40
2022-12-04T21:44:16.259Z,6.17
2022-12-04T21:46:44.907Z,7.33
2022-12-04T21:49:13.593Z,7.47
2022-12-04T21:51:57.480Z,6.70
2022-12-04T21:54:26.139Z,6.10
2022-12-04T21:56:54.082Z,6.20
2022-12-04T21:59:23.818Z,5.67
2022-12-04T22:01:52.027Z,6.33
2022-12-04T22:04:20.307Z,7.20
2022-12-04T22:06:48.465Z,7.03
2022-12-04T22:09:16.330Z,6.40
2022-12-04T22:11:44.428Z,6.07
2022-12-04T22:14:13.277Z,5.70
2022-12-04T22:16:43.378Z,6.00
2022-12-04T22:19:12.605Z,7.43
2022-12-04T22:21:41.101Z,6.40
2022-12-04T22:24:10.315Z,5.97
2022-12-04T22:26:38.770Z,6.67
2022-12-04T22:29:27.164Z,5.83
2022-12-04T22:31:56.493Z,5.70
2022-12-04T22:34:24.299Z,5.70
2022-12-04T22:36:52.096Z,6.60
2022-12-04T22:39:19.826Z,5.57
2022-12-04T22:41:47.594Z,5.40
2022-12-04T22:44:15.479Z,6.37
2022-12-04T22:46:43.314Z,7.00
2022-12-04T22:49:12.500Z,5.63
2022-12-04T22:51:40.283Z,6.30
2022-12-04T22:54:08.572Z,6.50
2022-12-04T22:56:36.438Z,6.30
2022-12-04T23:01:46.333Z,6.40
2022-12-04T23:04:15.464Z,6.40
2022-12-04T23:06:43.187Z,7.43
2022-12-04T23:09:14.960Z,6.33
2022-12-04T23:11:43.431Z,6.47
2022-12-04T23:14:13.976Z,6.10
2022-12-04T23:16:42.567Z,7.07
2022-12-04T23:19:15.883Z,8.00
2022-12-04T23:21:45.648Z,6.27
2022-12-04T23:24:13.975Z,6.10
2022-12-04T23:26:43.741Z,6.60
2022-12-04T23:29:37.018Z,6.60
2022-12-04T23:31:59.705Z,7.00
2022-12-04T23:34:27.520Z,5.87
2022-12-04T23:36:56.791Z,6.23
2022-12-04T23:39:24.672Z,5.30
2022-12-04T23:41:52.552Z,6.17
2022-12-04T23:44:20.353Z,5.20
2022-12-04T23:46:48.269Z,5.40
2022-12-04T23:49:16.177Z,6.87
2022-12-04T23:51:43.940Z,6.03
2022-12-04T23:54:13.063Z,6.87
2022-12-04T23:56:41.039Z,6.90
2022-12-04T23:59:08.860Z,5.43
